Sainte-Monique, Canada
Current Conditions -  °F | °C
As of 5:00 PM on Friday 19 Dec 2014 (Local Time) from CYRQ Reporting Station
Clear Clear  
Wind Chill: 18°   Ceiling: Unl
Heat Index: 18°   Visibility: 9mi
Dew Point: 14°   Wind: 0mph
Humidity: 86%   Direction: NA
Pressure: 30.14"   Gusts: NA
Location:  46.18°N, 72.5°W
Report Text: CYRQ 192200Z AUTO 00000KT 9SM CLR M08/M10 A3014 RMK SLP209
Loading
Personal Weather Stations






























Interactive Weather Map New forecast layout! Learn more

10-Day Weather Forecast

Advertisements
Track Severe Weather on mobile